createdAt,value
2019-04-22T00:01:56.897Z,24.97
2019-04-22T00:04:36.553Z,29.67
2019-04-22T00:07:17.401Z,26.07
2019-04-22T00:09:51.745Z,27.33
2019-04-22T00:12:27.967Z,25.43
2019-04-22T00:14:52.511Z,25.10
2019-04-22T00:17:45.226Z,24.50
2019-04-22T00:20:04.978Z,23.17
2019-04-22T00:22:32.648Z,23.17
2019-04-22T00:25:08.037Z,22.43
2019-04-22T00:27:42.829Z,25.13
2019-04-22T00:30:13.247Z,26.73
2019-04-22T00:32:41.885Z,22.60
2019-04-22T00:35:18.228Z,26.00
2019-04-22T00:37:57.015Z,26.43
2019-04-22T00:40:30.978Z,22.07
2019-04-22T00:45:35.291Z,21.70
2019-04-22T00:48:05.274Z,22.73
2019-04-22T00:50:57.815Z,25.77
2019-04-22T00:53:09.290Z,25.37
2019-04-22T00:58:40.700Z,23.20
2019-04-22T01:01:17.481Z,27.30
2019-04-22T01:06:20.355Z,24.70
2019-04-22T01:08:57.802Z,27.60
2019-04-22T01:13:55.745Z,25.90
2019-04-22T01:16:32.438Z,25.03
2019-04-22T01:19:04.728Z,23.17
2019-04-22T01:21:39.173Z,24.43
2019-04-22T01:24:02.879Z,24.30
2019-04-22T01:26:36.246Z,25.70
2019-04-22T01:29:05.035Z,28.27
2019-04-22T01:31:30.493Z,24.23
2019-04-22T01:34:14.139Z,28.47
2019-04-22T01:36:55.535Z,26.80
2019-04-22T01:39:33.835Z,27.37
2019-04-22T01:47:13.462Z,24.37
2019-04-22T01:49:39.858Z,26.20
2019-04-22T01:52:12.748Z,27.10
2019-04-22T01:54:48.433Z,25.73
2019-04-22T01:57:17.189Z,26.37
2019-04-22T01:59:45.829Z,28.83
2019-04-22T02:02:30.546Z,23.67
2019-04-22T02:05:01.230Z,24.23
2019-04-22T02:07:29.512Z,25.27
2019-04-22T02:10:04.007Z,22.57
2019-04-22T02:12:39.831Z,25.67
2019-04-22T02:15:12.485Z,26.97
2019-04-22T02:20:10.651Z,26.93
2019-04-22T02:23:40.782Z,30.00
2019-04-22T02:25:57.988Z,25.03
2019-04-22T02:28:32.322Z,25.30
2019-04-22T02:31:20.628Z,27.97
2019-04-22T02:36:20.253Z,27.57
2019-04-22T02:38:57.376Z,28.30
2019-04-22T02:43:56.962Z,29.20
2019-04-22T02:46:39.746Z,30.50
2019-04-22T02:51:22.975Z,28.27
2019-04-22T02:59:08.459Z,26.67
2019-04-22T03:01:33.096Z,26.80
2019-04-22T03:04:06.632Z,27.47
2019-04-22T03:06:38.520Z,28.00
2019-04-22T03:11:52.544Z,35.43
2019-04-22T03:14:08.698Z,29.83
2019-04-22T03:16:43.200Z,28.87
2019-04-22T03:21:50.249Z,30.53
2019-04-22T03:26:52.353Z,28.93
2019-04-22T03:30:33.674Z,32.07
2019-04-22T03:37:49.112Z,33.87
2019-04-22T03:42:52.239Z,35.00
2019-04-22T04:00:42.912Z,35.57
2019-04-22T04:10:46.096Z,39.50
2019-04-22T04:15:38.416Z,35.50
2019-04-22T04:18:30.876Z,37.27
2019-04-22T04:21:00.606Z,36.43
2019-04-22T04:23:31.022Z,39.40
2019-04-22T04:25:52.686Z,44.27
2019-04-22T04:30:59.829Z,37.50
2019-04-22T04:33:38.876Z,39.57
2019-04-22T04:36:11.572Z,39.20
2019-04-22T04:41:21.620Z,37.97
2019-04-22T04:46:27.213Z,36.17
2019-04-22T04:49:00.071Z,42.23
2019-04-22T04:54:05.680Z,37.50
2019-04-22T04:59:16.911Z,38.40
2019-04-22T05:01:36.023Z,38.80
2019-04-22T05:11:51.971Z,39.07
2019-04-22T05:16:46.395Z,37.37
2019-04-22T05:19:23.942Z,39.37
2019-04-22T05:21:53.463Z,39.97
2019-04-22T05:24:26.242Z,39.60
2019-04-22T05:26:56.755Z,38.43
2019-04-22T05:29:34.661Z,40.13
2019-04-22T05:31:59.725Z,40.40
2019-04-22T05:34:28.757Z,40.27
2019-04-22T05:40:34.672Z,39.53
2019-04-22T05:43:22.714Z,39.63
2019-04-22T05:45:59.275Z,34.60
2019-04-22T05:49:14.543Z,37.47
2019-04-22T05:52:04.705Z,39.47
2019-04-22T05:54:30.396Z,36.77
2019-04-22T05:57:31.606Z,41.70
2019-04-22T06:04:24.521Z,49.10
2019-04-22T06:07:01.057Z,39.73
2019-04-22T06:09:55.375Z,40.73
2019-04-22T06:12:32.767Z,41.67
2019-04-22T06:15:12.794Z,40.90
2019-04-22T06:17:55.119Z,38.27
2019-04-22T06:20:50.136Z,39.20
2019-04-22T06:23:36.044Z,40.97
2019-04-22T06:30:07.712Z,41.43
2019-04-22T06:32:53.964Z,41.30
2019-04-22T06:38:30.205Z,43.90
2019-04-22T06:40:55.385Z,39.47
2019-04-22T06:44:05.004Z,41.90
2019-04-22T06:52:52.523Z,38.30
2019-04-22T06:56:42.709Z,37.90
2019-04-22T06:59:31.258Z,38.20
2019-04-22T07:02:16.575Z,38.93
2019-04-22T07:08:16.056Z,38.07
2019-04-22T07:10:51.876Z,41.63
2019-04-22T07:13:35.889Z,39.83
2019-04-22T07:16:13.217Z,37.77
2019-04-22T07:19:24.347Z,36.60
2019-04-22T07:21:41.575Z,38.83
2019-04-22T07:24:40.426Z,33.03
2019-04-22T07:26:58.586Z,35.37
2019-04-22T07:29:42.781Z,34.97
2019-04-22T07:36:17.559Z,33.83
2019-04-22T07:43:21.406Z,35.60
2019-04-22T07:45:48.949Z,28.57
2019-04-22T07:48:33.407Z,31.43
2019-04-22T07:51:11.665Z,34.13
2019-04-22T07:53:23.037Z,36.37
2019-04-22T07:56:03.586Z,30.27
2019-04-22T07:58:29.015Z,34.53
2019-04-22T08:01:09.061Z,31.87
2019-04-22T08:03:49.985Z,31.07
2019-04-22T08:06:12.345Z,31.67
2019-04-22T08:08:37.318Z,31.27
2019-04-22T08:11:30.135Z,32.13
2019-04-22T08:14:20.965Z,30.90
2019-04-22T08:17:05.851Z,31.80
2019-04-22T08:19:33.155Z,30.70
2019-04-22T08:22:01.199Z,36.00
2019-04-22T08:24:42.059Z,29.77
2019-04-22T08:27:10.340Z,31.53
2019-04-22T08:29:56.634Z,27.73
2019-04-22T08:32:14.241Z,30.87
2019-04-22T08:34:47.460Z,28.40
2019-04-22T08:40:03.544Z,26.13
2019-04-22T08:42:43.416Z,25.27
2019-04-22T08:50:12.060Z,26.62
2019-04-22T08:52:44.698Z,26.95
2019-04-22T08:58:03.672Z,31.68
2019-04-22T09:00:21.556Z,24.72
2019-04-22T09:03:00.622Z,23.65
2019-04-22T09:05:55.375Z,34.60
2019-04-22T09:08:14.261Z,24.77
2019-04-22T09:13:10.231Z,22.32
2019-04-22T09:15:53.157Z,19.80
2019-04-22T09:23:37.152Z,20.55
2019-04-22T09:26:27.088Z,20.23
2019-04-22T09:29:20.922Z,24.05
2019-04-22T09:32:45.521Z,24.40
2019-04-22T09:35:24.915Z,23.55
2019-04-22T09:41:06.485Z,23.20
2019-04-22T09:46:52.184Z,22.13
2019-04-22T09:49:26.758Z,19.57
2019-04-22T09:52:54.923Z,22.40
2019-04-22T09:55:53.191Z,23.47
2019-04-22T09:58:38.550Z,27.40
2019-04-22T10:01:30.754Z,24.55
2019-04-22T10:03:56.746Z,29.00
2019-04-22T10:06:36.720Z,24.20
2019-04-22T10:15:33.761Z,26.95
2019-04-22T10:18:16.297Z,24.40
2019-04-22T10:21:27.311Z,27.25
2019-04-22T10:30:48.416Z,24.35
2019-04-22T10:35:55.324Z,24.37
2019-04-22T10:38:40.028Z,23.35
2019-04-22T10:41:26.406Z,22.82
2019-04-22T10:44:01.226Z,22.52
2019-04-22T10:46:56.071Z,24.52
2019-04-22T10:50:20.608Z,21.40
2019-04-22T10:55:21.600Z,19.50
2019-04-22T10:56:36.953Z,20.72
2019-04-22T10:59:10.949Z,21.10
2019-04-22T11:01:48.763Z,21.65
2019-04-22T11:04:32.497Z,22.25
2019-04-22T11:11:26.310Z,19.12
2019-04-22T11:14:12.683Z,16.80
2019-04-22T11:28:23.531Z,19.77
2019-04-22T11:31:10.425Z,15.32
2019-04-22T11:38:22.690Z,17.85
2019-04-22T11:45:39.527Z,15.68
2019-04-22T11:48:42.385Z,17.80
2019-04-22T11:51:24.154Z,14.58
2019-04-22T11:54:12.543Z,16.07
2019-04-22T12:01:39.011Z,12.70
2019-04-22T12:05:03.854Z,14.68
2019-04-22T12:07:57.331Z,13.03
2019-04-22T12:10:47.142Z,11.25
2019-04-22T12:13:49.828Z,15.58
2019-04-22T12:17:22.419Z,18.17
2019-04-22T12:20:27.546Z,17.55
2019-04-22T12:23:16.914Z,12.63
2019-04-22T12:25:54.261Z,11.70
2019-04-22T12:28:21.254Z,10.23
2019-04-22T12:31:01.611Z,12.20
2019-04-22T12:33:47.467Z,11.80
2019-04-22T12:36:26.482Z,11.33
2019-04-22T12:39:03.285Z,10.95
2019-04-22T12:41:42.388Z,11.33
2019-04-22T12:44:41.789Z,14.60
2019-04-22T12:48:08.477Z,13.90
2019-04-22T12:50:58.991Z,10.23
2019-04-22T12:58:11.906Z,11.73
2019-04-22T13:05:20.122Z,7.58
2019-04-22T13:07:59.884Z,9.45
2019-04-22T13:10:50.479Z,11.10
2019-04-22T13:13:13.121Z,8.38
2019-04-22T13:15:49.031Z,11.78
2019-04-22T13:18:29.353Z,7.00
2019-04-22T13:20:56.935Z,8.93
2019-04-22T13:23:39.136Z,7.00
2019-04-22T13:26:16.955Z,7.40
2019-04-22T13:29:15.054Z,5.17
2019-04-22T13:32:11.369Z,9.28
2019-04-22T13:34:46.651Z,6.85
2019-04-22T13:37:36.922Z,9.53
2019-04-22T13:41:26.732Z,8.10
2019-04-22T13:43:53.846Z,9.20
2019-04-22T13:46:32.138Z,9.45
2019-04-22T13:53:28.956Z,10.40
2019-04-22T13:55:59.248Z,8.80
2019-04-22T13:58:58.496Z,8.00
2019-04-22T14:01:54.647Z,7.62
2019-04-22T14:05:24.577Z,8.15
2019-04-22T14:08:37.564Z,8.18
2019-04-22T14:11:31.320Z,11.88
2019-04-22T14:13:54.634Z,7.83
2019-04-22T14:17:04.953Z,8.80
2019-04-22T14:23:35.667Z,8.45
2019-04-22T14:26:17.706Z,5.35
2019-04-22T14:29:06.106Z,9.50
2019-04-22T14:31:42.377Z,8.83
2019-04-22T14:34:46.933Z,6.50
2019-04-22T14:37:24.346Z,6.78
2019-04-22T14:40:09.279Z,9.50
2019-04-22T14:43:57.836Z,6.10
2019-04-22T14:46:32.037Z,5.45
2019-04-22T14:49:00.880Z,5.80
2019-04-22T14:51:41.827Z,6.75
2019-04-22T14:54:13.749Z,6.92
2019-04-22T14:56:34.270Z,5.08
2019-04-22T14:59:19.134Z,10.28
2019-04-22T15:02:03.529Z,6.75
2019-04-22T15:05:16.363Z,7.85
2019-04-22T15:07:57.059Z,6.35
2019-04-22T15:10:36.062Z,5.72
2019-04-22T15:13:51.629Z,7.62
2019-04-22T15:17:00.802Z,8.43
2019-04-22T15:21:04.878Z,6.55
2019-04-22T15:23:38.507Z,6.60
2019-04-22T15:26:42.528Z,11.03
2019-04-22T15:30:55.575Z,8.70
2019-04-22T15:33:48.035Z,10.00
2019-04-22T15:36:19.986Z,10.43
2019-04-22T15:39:05.128Z,8.85
2019-04-22T15:41:55.546Z,11.12
2019-04-22T15:44:37.654Z,9.48
2019-04-22T15:51:24.640Z,8.68
2019-04-22T15:54:39.447Z,9.50
2019-04-22T15:58:01.613Z,6.97
2019-04-22T16:00:45.939Z,7.35
2019-04-22T16:03:10.070Z,8.75
2019-04-22T16:05:43.918Z,6.78
2019-04-22T16:08:16.997Z,9.58
2019-04-22T16:10:48.155Z,16.05
2019-04-22T16:13:23.240Z,8.88
2019-04-22T16:15:52.190Z,8.03
2019-04-22T16:18:24.199Z,9.58
2019-04-22T16:20:56.390Z,8.50
2019-04-22T16:23:51.993Z,5.83
2019-04-22T16:26:33.483Z,8.75
2019-04-22T16:29:05.302Z,5.50
2019-04-22T16:31:37.644Z,7.25
2019-04-22T16:34:11.339Z,6.15
2019-04-22T16:36:42.851Z,14.28
2019-04-22T16:39:15.117Z,5.80
2019-04-22T16:41:46.665Z,7.85
2019-04-22T16:44:18.625Z,7.50
2019-04-22T16:46:49.990Z,7.37
2019-04-22T16:49:21.495Z,10.08
2019-04-22T16:51:52.157Z,8.68
2019-04-22T16:54:24.233Z,8.48
2019-04-22T16:56:57.556Z,9.60
2019-04-22T16:59:36.947Z,7.50
2019-04-22T17:02:41.731Z,8.60
2019-04-22T17:05:41.398Z,6.70
2019-04-22T17:08:12.329Z,4.35
2019-04-22T17:10:43.904Z,6.95
2019-04-22T17:13:19.686Z,4.80
2019-04-22T17:15:47.268Z,10.13
2019-04-22T17:18:25.448Z,5.97
2019-04-22T17:20:58.464Z,6.62
2019-04-22T17:23:29.680Z,11.05
2019-04-22T17:26:12.577Z,4.03
2019-04-22T17:28:51.213Z,6.85
2019-04-22T17:31:50.221Z,4.10
2019-04-22T17:34:15.790Z,3.80
2019-04-22T17:36:46.676Z,14.33
2019-04-22T17:39:31.562Z,5.87
2019-04-22T17:42:09.663Z,6.62
2019-04-22T17:44:54.248Z,6.37
2019-04-22T17:47:41.401Z,5.62
2019-04-22T17:50:21.501Z,3.08
2019-04-22T17:53:03.173Z,12.13
2019-04-22T17:55:24.254Z,9.45
2019-04-22T17:57:53.675Z,5.75
2019-04-22T18:00:34.764Z,8.88
2019-04-22T18:05:57.413Z,6.72
2019-04-22T18:08:45.422Z,4.78
2019-04-22T18:11:27.239Z,6.85
2019-04-22T18:13:58.848Z,8.17
2019-04-22T18:16:26.170Z,7.55
2019-04-22T18:18:59.929Z,7.25
2019-04-22T18:21:29.191Z,13.25
2019-04-22T18:23:54.009Z,6.22
2019-04-22T18:26:32.292Z,8.13
2019-04-22T18:29:07.165Z,9.27
2019-04-22T18:31:31.706Z,9.35
2019-04-22T18:34:06.952Z,10.57
2019-04-22T18:36:41.659Z,7.08
2019-04-22T18:39:33.422Z,11.45
2019-04-22T18:41:52.058Z,7.87
2019-04-22T18:44:35.105Z,7.90
2019-04-22T18:47:05.485Z,10.63
2019-04-22T18:49:42.813Z,13.35
2019-04-22T18:52:39.481Z,11.20
2019-04-22T18:55:26.762Z,4.87
2019-04-22T18:58:55.849Z,7.13
2019-04-22T19:02:27.185Z,5.62
2019-04-22T19:08:36.658Z,8.37
2019-04-22T19:11:16.711Z,7.12
2019-04-22T19:19:43.728Z,12.07
2019-04-22T19:22:25.233Z,7.05
2019-04-22T19:25:21.296Z,10.40
2019-04-22T19:28:19.198Z,10.40
2019-04-22T19:31:23.087Z,9.95
2019-04-22T19:34:00.750Z,9.23
2019-04-22T19:36:51.895Z,6.62
2019-04-22T19:39:31.014Z,11.33
2019-04-22T19:42:40.826Z,4.08
2019-04-22T19:45:05.840Z,10.82
2019-04-22T19:47:58.205Z,7.05
2019-04-22T19:50:21.340Z,10.20
2019-04-22T19:52:59.458Z,8.87
2019-04-22T19:55:35.938Z,13.93
2019-04-22T19:58:20.066Z,7.53
2019-04-22T20:01:41.729Z,7.37
2019-04-22T20:05:05.921Z,8.43
2019-04-22T20:10:30.026Z,8.83
2019-04-22T20:13:04.335Z,10.43
2019-04-22T20:15:33.437Z,5.67
2019-04-22T20:20:46.554Z,8.10
2019-04-22T20:23:14.496Z,10.30
2019-04-22T20:25:46.380Z,8.10
2019-04-22T20:28:24.181Z,5.95
2019-04-22T20:30:55.726Z,11.97
2019-04-22T20:33:29.273Z,12.03
2019-04-22T20:36:03.548Z,7.08
2019-04-22T20:38:29.673Z,10.85
2019-04-22T20:41:05.753Z,8.10
2019-04-22T20:43:40.347Z,8.63
2019-04-22T20:46:11.514Z,6.43
2019-04-22T20:48:48.356Z,8.50
2019-04-22T20:51:29.716Z,6.97
2019-04-22T20:53:57.778Z,12.53
2019-04-22T20:56:26.811Z,6.75
2019-04-22T20:58:57.184Z,8.60
2019-04-22T21:01:28.310Z,9.17
2019-04-22T21:03:50.914Z,12.30
2019-04-22T21:06:33.518Z,7.37
2019-04-22T21:09:12.105Z,7.45
2019-04-22T21:11:38.448Z,6.33
2019-04-22T21:14:12.020Z,4.80
2019-04-22T21:16:47.825Z,5.50
2019-04-22T21:19:25.975Z,4.50
2019-04-22T21:21:54.697Z,8.70
2019-04-22T21:24:21.834Z,6.65
2019-04-22T21:26:58.363Z,4.03
2019-04-22T21:29:20.769Z,8.53
2019-04-22T21:32:01.467Z,6.22
2019-04-22T21:34:35.326Z,9.15
2019-04-22T21:37:07.575Z,4.87
2019-04-22T21:39:30.830Z,7.40
2019-04-22T21:42:11.852Z,7.57
2019-04-22T21:44:42.665Z,4.62
2019-04-22T21:47:26.540Z,7.07
2019-04-22T21:49:55.070Z,6.03
2019-04-22T21:52:26.022Z,11.28
2019-04-22T21:55:03.865Z,7.85
2019-04-22T21:58:05.173Z,4.12
2019-04-22T22:03:15.929Z,9.17
2019-04-22T22:05:38.468Z,8.80
2019-04-22T22:08:20.340Z,4.17
2019-04-22T22:10:45.294Z,6.90
2019-04-22T22:13:17.058Z,6.37
2019-04-22T22:15:53.692Z,7.43
2019-04-22T22:18:19.036Z,6.97
2019-04-22T22:21:19.616Z,3.07
2019-04-22T22:23:38.796Z,6.83
2019-04-22T22:25:58.309Z,3.87
2019-04-22T22:31:15.503Z,5.00
2019-04-22T22:33:45.143Z,8.30
2019-04-22T22:36:15.264Z,8.13
2019-04-22T22:38:42.601Z,10.27
2019-04-22T22:40:58.171Z,10.43
2019-04-22T22:43:34.944Z,8.13
2019-04-22T22:46:13.438Z,8.30
2019-04-22T22:49:00.282Z,11.50
2019-04-22T22:51:33.995Z,7.30
2019-04-22T22:53:58.143Z,16.50
2019-04-22T22:56:39.276Z,9.15
2019-04-22T22:59:03.093Z,10.63
2019-04-22T23:01:39.531Z,5.13
2019-04-22T23:04:08.883Z,3.73
2019-04-22T23:06:48.231Z,7.53
2019-04-22T23:09:17.369Z,8.37
2019-04-22T23:14:21.950Z,7.67
2019-04-22T23:16:39.419Z,4.87
2019-04-22T23:19:06.397Z,8.00
2019-04-22T23:21:41.962Z,11.00
2019-04-22T23:24:26.476Z,15.25
2019-04-22T23:27:11.433Z,5.27
2019-04-22T23:32:31.976Z,5.17
2019-04-22T23:35:15.330Z,6.43
2019-04-22T23:37:47.744Z,5.53
2019-04-22T23:43:00.195Z,11.90
2019-04-22T23:45:30.527Z,5.50
2019-04-22T23:47:47.440Z,11.73
2019-04-22T23:50:31.405Z,10.17
2019-04-22T23:53:04.849Z,10.93
2019-04-22T23:55:37.022Z,4.20
2019-04-22T23:58:11.123Z,9.80
